Time;durP1;ratioP1;P1;durP2;ratioP2;P2;SDS_P1;SDS_P2;PMS_P1;PMS_P2;Temp;Humidity;BMP_temperature;BMP_pressure;BME280_temperature;BME280_humidity;BME280_pressure;Samples;Min_cycle;Max_cycle;Signal;HPM_P1;HPM_P2
2020/12/16 00:05:02;;;;;;;57.03;34.05;;;;;;;;;;6003553;22;20105;-95
2020/12/16 00:17:53;;;;;;;57.47;34.45;;;;;;;;;;5958984;22;20041;-96
2020/12/16 00:20:29;;;;;;;66.03;35.72;;;;;;;;;;5076072;28;20073;-96
2020/12/16 00:22:55;;;;;;;68.57;38.90;;;;;;;;;;5068318;28;20034;-95
2020/12/16 00:25:22;;;;;;;71.07;40.10;;;;;;;;;;5058783;28;20322;-95
2020/12/16 00:27:48;;;;;;;73.63;39.55;;;;;;;;;;5058290;28;20036;-95
2020/12/16 00:30:15;;;;;;;73.47;38.95;;;;;;;;;;5059097;28;20346;-94
2020/12/16 00:32:41;;;;;;;74.10;40.63;;;;;;;;;;5058647;28;20033;-95
2020/12/16 00:35:08;;;;;;;66.78;38.03;;;;;;;;;;5059155;28;20029;-96
2020/12/16 00:37:41;;;;;;;62.47;34.92;;;;;;;;;;5058788;28;20044;-95
2020/12/16 00:40:09;;;;;;;62.95;33.90;;;;;;;;;;5057716;28;20041;-96
2020/12/16 00:42:36;;;;;;;63.22;36.10;;;;;;;;;;5231827;22;20120;-95
2020/12/16 00:45:04;;;;;;;61.28;32.35;;;;;;;;;;5067310;28;20041;-96
2020/12/16 00:47:43;;;;;;;54.45;31.48;;;;;;;;;;5620370;22;20012;-95
2020/12/16 00:50:12;;;;;;;54.00;31.13;;;;;;;;;;5071962;28;20024;-96
2020/12/16 00:52:44;;;;;;;61.00;33.13;;;;;;;;;;5057079;28;20040;-96
2020/12/16 00:57:48;;;;;;;71.53;36.92;;;;;;;;;;6033471;22;20039;-96
2020/12/16 01:00:19;;;;;;;72.57;36.72;;;;;;;;;;5053707;28;20039;-95
2020/12/16 01:18:47;;;;;;;75.85;40.10;;;;;;;;;;6098708;22;20020;-96
2020/12/16 02:05:45;;;;;;;102.05;48.55;;;;;;;;;;5011013;23;20764;-95
2020/12/16 02:08:13;;;;;;;96.88;46.80;;;;;;;;;;4945099;29;20036;-95
2020/12/16 02:10:40;;;;;;;98.35;48.80;;;;;;;;;;4964003;29;20017;-95
2020/12/16 02:13:06;;;;;;;98.25;47.30;;;;;;;;;;4946767;29;20363;-96
2020/12/16 02:15:35;;;;;;;99.75;48.03;;;;;;;;;;4964055;29;20347;-96
2020/12/16 02:18:01;;;;;;;95.80;47.08;;;;;;;;;;4964788;29;20472;-95
2020/12/16 02:20:27;;;;;;;98.22;46.63;;;;;;;;;;4947135;29;20054;-96
2020/12/16 02:22:55;;;;;;;96.97;46.78;;;;;;;;;;4947309;29;20311;-95
2020/12/16 02:25:21;;;;;;;96.15;47.40;;;;;;;;;;4946200;29;20110;-95
2020/12/16 02:27:47;;;;;;;94.53;45.28;;;;;;;;;;4963506;29;20062;-96
2020/12/16 03:07:14;;;;;;;112.55;46.67;;;;;;;;;;5279167;23;20046;-96
2020/12/16 03:12:52;;;;;;;99.88;43.78;;;;;;;;;;5065823;23;20067;-96
2020/12/16 03:15:22;;;;;;;106.78;45.72;;;;;;;;;;4969098;28;20023;-96
2020/12/16 03:54:53;;;;;;;96.53;41.30;;;;;;;;;;5742372;23;20047;-96
2020/12/16 03:57:22;;;;;;;98.55;43.38;;;;;;;;;;5380350;23;20026;-96
2020/12/16 03:59:49;;;;;;;97.90;42.92;;;;;;;;;;4973793;29;20050;-95
2020/12/16 04:02:24;;;;;;;102.22;43.05;;;;;;;;;;4973273;29;20031;-95
2020/12/16 04:05:03;;;;;;;98.82;42.00;;;;;;;;;;4956445;29;20118;-95
2020/12/16 04:07:29;;;;;;;108.35;44.78;;;;;;;;;;4974002;29;20051;-95
2020/12/16 04:09:55;;;;;;;92.75;43.88;;;;;;;;;;4936894;29;20095;-95
2020/12/16 04:12:26;;;;;;;110.53;43.45;;;;;;;;;;4967932;29;20019;-95
2020/12/16 04:14:55;;;;;;;99.00;40.40;;;;;;;;;;4967427;29;20031;-95
2020/12/16 04:17:26;;;;;;;102.30;41.42;;;;;;;;;;4969056;29;20023;-96
2020/12/16 04:19:55;;;;;;;97.38;40.47;;;;;;;;;;4965248;29;20034;-96
2020/12/16 04:22:27;;;;;;;93.90;40.40;;;;;;;;;;4974624;29;20024;-95
2020/12/16 04:25:11;;;;;;;;;;;;;;;;;;4965792;29;20032;-94
2020/12/16 04:27:38;;;;;;;95.55;39.42;;;;;;;;;;4960180;28;19911;-94
2020/12/16 04:30:05;;;;;;;89.68;39.30;;;;;;;;;;4946295;29;20035;-94
2020/12/16 04:32:31;;;;;;;96.47;40.58;;;;;;;;;;4963455;29;20110;-94
2020/12/16 04:34:57;;;;;;;97.60;41.25;;;;;;;;;;4963348;29;20429;-94
2020/12/16 04:37:23;;;;;;;95.97;41.08;;;;;;;;;;4962995;29;20123;-94
2020/12/16 04:39:49;;;;;;;103.95;41.85;;;;;;;;;;4963630;29;20027;-94
2020/12/16 04:42:15;;;;;;;100.03;43.40;;;;;;;;;;4963207;29;20027;-95
2020/12/16 04:44:41;;;;;;;96.18;41.83;;;;;;;;;;4963485;29;20039;-95
2020/12/16 04:47:08;;;;;;;91.40;42.28;;;;;;;;;;4946090;29;20023;-95
2020/12/16 04:49:34;;;;;;;90.40;40.78;;;;;;;;;;4946240;29;20024;-95
2020/12/16 04:52:01;;;;;;;87.93;41.78;;;;;;;;;;4963166;29;20032;-94
2020/12/16 04:54:28;;;;;;;97.03;41.17;;;;;;;;;;4963089;29;20039;-95
2020/12/16 04:56:55;;;;;;;90.43;40.75;;;;;;;;;;4963005;29;20299;-95
2020/12/16 04:59:21;;;;;;;96.15;42.03;;;;;;;;;;4945531;29;20089;-95
2020/12/16 05:01:47;;;;;;;93.68;41.53;;;;;;;;;;4963000;29;20321;-93
2020/12/16 05:04:13;;;;;;;96.13;40.90;;;;;;;;;;4948801;29;20028;-95
2020/12/16 05:06:40;;;;;;;93.15;41.80;;;;;;;;;;4946098;29;20031;-96
2020/12/16 05:12:16;;;;;;;90.03;41.63;;;;;;;;;;4963259;29;20054;-93
2020/12/16 05:14:42;;;;;;;;;;;;;;;;;;4947223;29;20031;-95
2020/12/16 05:17:08;;;;;;;89.50;38.83;;;;;;;;;;4964612;29;19961;-95
2020/12/16 05:19:45;;;;;;;87.97;38.55;;;;;;;;;;4946983;29;20027;-94
2020/12/16 05:22:12;;;;;;;88.47;39.92;;;;;;;;;;4946466;29;20027;-93
2020/12/16 05:28:03;;;;;;;95.65;42.88;;;;;;;;;;4962734;29;20078;-92
2020/12/16 05:30:29;;;;;;;93.95;43.65;;;;;;;;;;4944920;29;20414;-93
2020/12/16 05:32:55;;;;;;;90.68;43.03;;;;;;;;;;4962371;29;20023;-90
2020/12/16 05:35:49;;;;;;;95.20;42.97;;;;;;;;;;4945626;29;20082;-94
2020/12/16 05:43:28;;;;;;;133.02;64.88;;;;;;;;;;5820730;23;20087;-96
2020/12/16 05:45:54;;;;;;;128.43;62.10;;;;;;;;;;4962714;29;20031;-96
2020/12/16 05:48:26;;;;;;;108.63;50.92;;;;;;;;;;4963817;29;20407;-95
2020/12/16 05:56:14;;;;;;;159.75;84.65;;;;;;;;;;5597564;23;20066;-95
2020/12/16 05:58:40;;;;;;;190.82;91.97;;;;;;;;;;4963041;29;20115;-95
2020/12/16 06:01:07;;;;;;;183.45;80.82;;;;;;;;;;4962292;29;20023;-95
2020/12/16 06:03:34;;;;;;;136.18;63.58;;;;;;;;;;4962141;29;20031;-96
2020/12/16 06:06:03;;;;;;;125.63;58.72;;;;;;;;;;4946262;29;20034;-95
2020/12/16 06:11:37;;;;;;;132.43;57.38;;;;;;;;;;4961546;29;20058;-94
2020/12/16 06:14:06;;;;;;;97.10;46.00;;;;;;;;;;4961424;29;20027;-95
2020/12/16 06:16:43;;;;;;;89.25;44.15;;;;;;;;;;4944700;29;20035;-95
2020/12/16 06:19:12;;;;;;;83.18;42.38;;;;;;;;;;4944317;29;20114;-95
2020/12/16 06:21:42;;;;;;;86.10;43.33;;;;;;;;;;4950811;29;20050;-96
2020/12/16 06:27:21;;;;;;;80.97;39.33;;;;;;;;;;4967123;28;20058;-93
2020/12/16 06:29:49;;;;;;;94.53;43.67;;;;;;;;;;4961058;29;20050;-83
2020/12/16 06:32:35;;;;;;;96.25;46.05;;;;;;;;;;4960838;29;20414;-84
2020/12/16 06:35:03;;;;;;;94.97;45.15;;;;;;;;;;4902184;29;20040;-84
2020/12/16 06:37:30;;;;;;;87.65;43.80;;;;;;;;;;4903839;29;20036;-94
2020/12/16 06:39:56;;;;;;;92.18;44.40;;;;;;;;;;4902419;29;20119;-94
2020/12/16 06:42:32;;;;;;;91.95;46.30;;;;;;;;;;4884729;29;20326;-95
2020/12/16 06:45:12;;;;;;;98.35;47.60;;;;;;;;;;4883420;29;20138;-94
2020/12/16 06:47:38;;;;;;;95.20;47.42;;;;;;;;;;4883629;29;20120;-93
2020/12/16 06:50:21;;;;;;;89.75;44.50;;;;;;;;;;4867869;29;20025;-94
2020/12/16 06:52:47;;;;;;;89.78;44.63;;;;;;;;;;4867872;29;20041;-94
2020/12/16 06:58:36;;;;;;;122.38;62.40;;;;;;;;;;4884150;29;20063;-93
2020/12/16 07:01:16;;;;;;;160.73;75.00;;;;;;;;;;4883286;29;20033;-94
2020/12/16 07:03:42;;;;;;;164.02;82.47;;;;;;;;;;4883885;29;20327;-94
2020/12/16 07:06:28;;;;;;;138.55;76.53;;;;;;;;;;4883905;29;20041;-94
2020/12/16 07:09:12;;;;;;;110.95;60.22;;;;;;;;;;4882154;29;20025;-93
2020/12/16 07:11:39;;;;;;;106.50;58.58;;;;;;;;;;4895489;29;20036;-94
2020/12/16 07:14:09;;;;;;;131.55;69.28;;;;;;;;;;4921272;29;20108;-94
2020/12/16 07:16:36;;;;;;;154.57;77.45;;;;;;;;;;4922096;29;20088;-93
2020/12/16 07:19:02;;;;;;;442.67;176.00;;;;;;;;;;4922858;29;20032;-93
2020/12/16 07:21:29;;;;;;;299.50;121.13;;;;;;;;;;4923029;29;20032;-93
2020/12/16 07:23:57;;;;;;;157.88;90.65;;;;;;;;;;4921147;29;20063;-95
2020/12/16 07:26:23;;;;;;;106.38;62.42;;;;;;;;;;4922158;29;20032;-94
2020/12/16 07:28:49;;;;;;;95.63;55.55;;;;;;;;;;4921320;29;20035;-93
2020/12/16 07:31:15;;;;;;;89.53;52.10;;;;;;;;;;4921936;29;20051;-94
2020/12/16 07:33:42;;;;;;;82.30;48.42;;;;;;;;;;4922061;29;20028;-96
2020/12/16 07:36:08;;;;;;;88.65;50.67;;;;;;;;;;4920768;29;20072;-95
2020/12/16 07:38:35;;;;;;;96.60;51.35;;;;;;;;;;4921728;29;20025;-94
2020/12/16 07:41:01;;;;;;;91.90;50.75;;;;;;;;;;4920910;29;20020;-94
2020/12/16 07:43:27;;;;;;;89.10;48.85;;;;;;;;;;4920750;29;20089;-93
2020/12/16 07:46:04;;;;;;;93.53;54.60;;;;;;;;;;4921949;29;20055;-93
2020/12/16 07:48:31;;;;;;;108.47;64.60;;;;;;;;;;4922162;29;20031;-92
2020/12/16 07:51:05;;;;;;;182.02;117.70;;;;;;;;;;4920693;29;20064;-94
2020/12/16 07:53:32;;;;;;;96.90;59.45;;;;;;;;;;4921458;29;20024;-94
2020/12/16 07:56:04;;;;;;;83.93;52.55;;;;;;;;;;4921607;29;20420;-92
2020/12/16 07:58:31;;;;;;;81.00;46.03;;;;;;;;;;4923752;29;20039;-93
2020/12/16 08:01:16;;;;;;;82.13;46.28;;;;;;;;;;4940366;29;20091;-92
2020/12/16 08:03:43;;;;;;;75.85;43.78;;;;;;;;;;4940207;29;20027;-94
2020/12/16 08:06:09;;;;;;;86.43;46.80;;;;;;;;;;4940331;29;20027;-94
2020/12/16 08:08:48;;;;;;;93.50;47.40;;;;;;;;;;4940083;29;20035;-91
2020/12/16 08:11:15;;;;;;;82.95;47.22;;;;;;;;;;4924038;29;20036;-90
2020/12/16 08:13:42;;;;;;;81.97;47.00;;;;;;;;;;4923617;29;20089;-95
2020/12/16 08:16:08;;;;;;;82.85;45.65;;;;;;;;;;4940193;29;20030;-93
2020/12/16 08:18:38;;;;;;;78.43;43.78;;;;;;;;;;4940119;29;20402;-93
2020/12/16 08:21:14;;;;;;;77.65;41.92;;;;;;;;;;4923474;29;20067;-93
2020/12/16 08:23:40;;;;;;;72.20;42.67;;;;;;;;;;4940490;29;20039;-94
2020/12/16 08:26:06;;;;;;;78.38;44.17;;;;;;;;;;4940354;29;20040;-92
2020/12/16 08:28:32;;;;;;;83.65;46.80;;;;;;;;;;4923271;29;20075;-93
2020/12/16 08:30:58;;;;;;;84.65;49.47;;;;;;;;;;4939661;29;20054;-93
2020/12/16 08:33:25;;;;;;;109.10;71.45;;;;;;;;;;4939882;29;20050;-93
2020/12/16 08:35:57;;;;;;;116.10;68.43;;;;;;;;;;4923494;29;20453;-93
2020/12/16 08:38:26;;;;;;;165.13;78.60;;;;;;;;;;4940003;29;20041;-92
2020/12/16 08:40:55;;;;;;;122.78;60.70;;;;;;;;;;4939922;29;20079;-92
2020/12/16 08:43:29;;;;;;;119.57;61.95;;;;;;;;;;4939859;29;20430;-91
2020/12/16 08:46:08;;;;;;;121.38;71.28;;;;;;;;;;4939970;29;20082;-93
2020/12/16 08:48:45;;;;;;;122.80;78.60;;;;;;;;;;4940211;29;20032;-93
2020/12/16 08:51:12;;;;;;;103.13;60.35;;;;;;;;;;4907962;29;20043;-89
2020/12/16 08:53:50;;;;;;;100.93;58.65;;;;;;;;;;4940112;29;20106;-93
2020/12/16 08:56:22;;;;;;;88.57;48.88;;;;;;;;;;4939714;29;20059;-91
2020/12/16 08:58:59;;;;;;;100.45;55.10;;;;;;;;;;4939856;29;20048;-91
2020/12/16 09:01:25;;;;;;;86.85;49.53;;;;;;;;;;4940239;29;20036;-91
2020/12/16 09:03:52;;;;;;;81.97;47.95;;;;;;;;;;4922913;29;20415;-91
2020/12/16 09:06:18;;;;;;;84.22;48.95;;;;;;;;;;4939784;29;20074;-91
2020/12/16 09:09:21;;;;;;;101.03;55.58;;;;;;;;;;4940289;29;20023;-94
2020/12/16 09:11:47;;;;;;;;;;;;;;;;;;4940197;29;20048;-93
2020/12/16 09:14:13;;;;;;;114.93;55.40;;;;;;;;;;4939826;29;19907;-94
2020/12/16 09:16:39;;;;;;;111.55;58.47;;;;;;;;;;4943254;29;20415;-93
2020/12/16 09:19:05;;;;;;;126.15;62.90;;;;;;;;;;4926445;29;20098;-94
2020/12/16 09:21:35;;;;;;;136.27;66.90;;;;;;;;;;4943499;29;20031;-92
2020/12/16 09:24:05;;;;;;;109.93;57.67;;;;;;;;;;4943837;29;20023;-94
2020/12/16 09:26:35;;;;;;;125.57;61.10;;;;;;;;;;4943386;29;20042;-93
2020/12/16 09:29:01;;;;;;;108.38;52.78;;;;;;;;;;4926300;29;20028;-93
2020/12/16 09:31:27;;;;;;;159.98;69.80;;;;;;;;;;4943123;29;20019;-94
2020/12/16 09:33:57;;;;;;;164.75;73.22;;;;;;;;;;4942648;29;20368;-93
2020/12/16 09:36:26;;;;;;;134.52;67.95;;;;;;;;;;4943045;29;20032;-94
2020/12/16 09:39:00;;;;;;;129.80;60.95;;;;;;;;;;4925941;29;20042;-94
2020/12/16 09:41:27;;;;;;;112.00;55.75;;;;;;;;;;4926133;29;20106;-94
2020/12/16 09:43:53;;;;;;;121.13;59.65;;;;;;;;;;4942943;29;20103;-93
2020/12/16 09:46:20;;;;;;;127.30;63.63;;;;;;;;;;4942609;29;20031;-93
2020/12/16 09:48:47;;;;;;;125.75;63.40;;;;;;;;;;4942617;29;20055;-94
2020/12/16 09:51:14;;;;;;;100.88;53.05;;;;;;;;;;4942547;29;20059;-93
2020/12/16 09:53:40;;;;;;;104.85;50.47;;;;;;;;;;4925815;29;20028;-94
2020/12/16 09:56:06;;;;;;;93.57;50.30;;;;;;;;;;4942584;29;20040;-93
2020/12/16 09:58:37;;;;;;;95.95;49.67;;;;;;;;;;4942462;29;20055;-93
2020/12/16 10:01:03;;;;;;;96.63;51.63;;;;;;;;;;4925696;29;20031;-94
2020/12/16 10:03:29;;;;;;;91.30;48.47;;;;;;;;;;4942302;29;20442;-93
2020/12/16 10:05:55;;;;;;;85.90;45.55;;;;;;;;;;4942188;29;20031;-91
2020/12/16 10:08:21;;;;;;;121.70;57.30;;;;;;;;;;4942310;29;20056;-93
2020/12/16 10:10:47;;;;;;;102.43;50.50;;;;;;;;;;4942302;29;20319;-94
2020/12/16 10:13:14;;;;;;;110.07;50.67;;;;;;;;;;4925500;29;20028;-92
2020/12/16 10:15:40;;;;;;;130.93;59.40;;;;;;;;;;4942165;29;20050;-94
2020/12/16 10:18:06;;;;;;;121.15;59.40;;;;;;;;;;4942206;29;20027;-94
2020/12/16 10:20:32;;;;;;;167.88;71.75;;;;;;;;;;4941932;29;20318;-93
2020/12/16 10:23:00;;;;;;;152.40;64.13;;;;;;;;;;4942085;29;20039;-94
2020/12/16 10:25:27;;;;;;;125.20;58.45;;;;;;;;;;4942553;29;20367;-94
2020/12/16 10:27:54;;;;;;;117.30;57.92;;;;;;;;;;4925130;29;20019;-92
2020/12/16 10:30:24;;;;;;;105.30;54.42;;;;;;;;;;4941940;29;20487;-92
2020/12/16 10:32:51;;;;;;;127.93;61.05;;;;;;;;;;4941714;29;20437;-94
2020/12/16 10:35:17;;;;;;;165.13;69.50;;;;;;;;;;4925122;29;20034;-93
2020/12/16 10:37:45;;;;;;;170.98;69.97;;;;;;;;;;4925125;29;20501;-92
2020/12/16 10:40:12;;;;;;;122.70;56.58;;;;;;;;;;4924968;29;20032;-92
2020/12/16 10:42:38;;;;;;;123.05;57.58;;;;;;;;;;4941446;29;20296;-94
2020/12/16 10:45:05;;;;;;;103.35;51.70;;;;;;;;;;4941262;29;20111;-92
2020/12/16 10:47:31;;;;;;;100.55;49.10;;;;;;;;;;4925000;29;20052;-92
2020/12/16 10:49:58;;;;;;;102.32;50.28;;;;;;;;;;4941595;29;20031;-92
2020/12/16 10:52:24;;;;;;;97.93;50.10;;;;;;;;;;4941454;29;20052;-93
2020/12/16 10:54:50;;;;;;;103.10;50.33;;;;;;;;;;4924770;29;20415;-93
2020/12/16 10:57:16;;;;;;;113.70;54.53;;;;;;;;;;4941188;29;20138;-93
2020/12/16 10:59:42;;;;;;;117.82;55.22;;;;;;;;;;4941329;29;20431;-93
2020/12/16 11:02:08;;;;;;;102.10;50.85;;;;;;;;;;4941796;29;20035;-88
2020/12/16 11:04:36;;;;;;;112.75;54.30;;;;;;;;;;4941323;29;20027;-93
2020/12/16 11:07:02;;;;;;;109.25;55.47;;;;;;;;;;4924375;29;20042;-91
2020/12/16 11:09:29;;;;;;;138.57;62.10;;;;;;;;;;4941179;29;20032;-93
2020/12/16 11:11:55;;;;;;;120.38;55.88;;;;;;;;;;4940860;29;20114;-93
2020/12/16 11:14:22;;;;;;;124.55;54.92;;;;;;;;;;4940496;29;20035;-91
2020/12/16 11:16:48;;;;;;;115.55;54.83;;;;;;;;;;4940644;29;20059;-92
2020/12/16 11:19:16;;;;;;;109.05;55.08;;;;;;;;;;4941085;29;20433;-92
2020/12/16 11:21:44;;;;;;;163.10;85.70;;;;;;;;;;4940640;29;20144;-92
2020/12/16 11:24:11;;;;;;;138.68;70.05;;;;;;;;;;4923702;29;20031;-91
2020/12/16 11:26:46;;;;;;;132.98;68.70;;;;;;;;;;4940644;29;20079;-92
2020/12/16 11:29:12;;;;;;;113.78;55.72;;;;;;;;;;4924036;29;20176;-92
2020/12/16 11:31:40;;;;;;;121.63;58.50;;;;;;;;;;4941088;29;20047;-93
2020/12/16 11:34:06;;;;;;;107.93;55.20;;;;;;;;;;4940847;29;20028;-92
2020/12/16 11:36:32;;;;;;;188.90;93.43;;;;;;;;;;4940887;29;20032;-92
2020/12/16 11:38:58;;;;;;;155.32;74.88;;;;;;;;;;4940159;29;20035;-92
2020/12/16 11:41:25;;;;;;;120.72;57.53;;;;;;;;;;4940693;29;20042;-93
2020/12/16 11:43:51;;;;;;;114.35;55.97;;;;;;;;;;4940806;29;20054;-92
2020/12/16 11:46:17;;;;;;;129.15;59.05;;;;;;;;;;4940439;29;20411;-93
2020/12/16 11:48:43;;;;;;;115.97;56.70;;;;;;;;;;4923709;29;20031;-91
2020/12/16 11:51:09;;;;;;;120.03;59.03;;;;;;;;;;4940600;29;20030;-91
2020/12/16 11:53:35;;;;;;;117.60;59.72;;;;;;;;;;4940559;29;20024;-94
2020/12/16 11:56:01;;;;;;;114.10;58.97;;;;;;;;;;4923291;29;20439;-94
2020/12/16 11:58:29;;;;;;;123.40;56.58;;;;;;;;;;4940609;29;20043;-93
2020/12/16 12:00:55;;;;;;;181.25;77.25;;;;;;;;;;4941023;29;20019;-88
2020/12/16 12:03:21;;;;;;;235.70;93.88;;;;;;;;;;4924197;29;20118;-94
2020/12/16 12:05:47;;;;;;;210.13;87.65;;;;;;;;;;4940266;29;20039;-93
2020/12/16 12:08:28;;;;;;;167.85;79.03;;;;;;;;;;4882235;29;20113;-93
2020/12/16 12:10:54;;;;;;;128.45;63.95;;;;;;;;;;4866619;29;20045;-92
2020/12/16 12:13:20;;;;;;;126.35;62.03;;;;;;;;;;4882133;29;20045;-92
2020/12/16 12:15:46;;;;;;;239.25;69.00;;;;;;;;;;4882116;29;20025;-94
2020/12/16 12:18:12;;;;;;;191.18;75.70;;;;;;;;;;4882163;29;20067;-90
2020/12/16 12:20:38;;;;;;;702.28;108.68;;;;;;;;;;4866581;29;20033;-93
2020/12/16 12:23:04;;;;;;;134.95;56.67;;;;;;;;;;4882245;29;20033;-93
2020/12/16 12:25:30;;;;;;;112.15;56.00;;;;;;;;;;4881948;29;20065;-96
2020/12/16 12:27:57;;;;;;;106.85;53.75;;;;;;;;;;4881036;29;20029;-90
2020/12/16 12:30:23;;;;;;;138.60;57.47;;;;;;;;;;4866719;29;20057;-88
2020/12/16 12:32:49;;;;;;;111.43;53.45;;;;;;;;;;4881939;29;20037;-88
2020/12/16 12:35:15;;;;;;;106.38;53.85;;;;;;;;;;4882102;29;20025;-89
2020/12/16 12:37:41;;;;;;;108.10;55.10;;;;;;;;;;4880481;29;20033;-89
2020/12/16 12:40:08;;;;;;;134.43;60.55;;;;;;;;;;4880982;29;20432;-91
2020/12/16 16:03:58;;;;;;;267.60;122.03;;;;;;;;;;5173236;27;20396;-90
2020/12/16 16:06:24;;;;;;;256.65;116.05;;;;;;;;;;5137486;27;20053;-89
2020/12/16 16:08:50;;;;;;;291.25;132.43;;;;;;;;;;5154694;27;20051;-87
2020/12/16 16:11:18;;;;;;;316.05;139.13;;;;;;;;;;5154788;27;20027;-87
2020/12/16 16:13:44;;;;;;;250.13;111.85;;;;;;;;;;5154779;27;20519;-87
2020/12/16 16:16:10;;;;;;;505.90;220.90;;;;;;;;;;5154678;27;20062;-87
2020/12/16 16:18:36;;;;;;;1095.97;445.27;;;;;;;;;;5154615;27;20042;-87
2020/12/16 16:21:02;;;;;;;822.17;340.05;;;;;;;;;;5155060;27;20027;-87
2020/12/16 16:23:28;;;;;;;380.85;149.27;;;;;;;;;;5154655;27;20023;-88
2020/12/16 16:25:54;;;;;;;278.50;110.13;;;;;;;;;;5154647;27;20019;-90
2020/12/16 16:28:20;;;;;;;294.88;116.03;;;;;;;;;;5154388;27;20080;-88
2020/12/16 16:30:47;;;;;;;325.05;126.40;;;;;;;;;;5153236;27;20030;-82
2020/12/16 16:33:13;;;;;;;277.27;116.50;;;;;;;;;;5140310;27;20031;-86
2020/12/16 16:35:39;;;;;;;270.83;115.75;;;;;;;;;;5139434;27;20049;-84
2020/12/16 16:38:06;;;;;;;338.38;128.13;;;;;;;;;;5146937;27;20024;-87
2020/12/16 16:40:51;;;;;;;434.40;167.82;;;;;;;;;;5120152;27;20468;-86
2020/12/16 16:43:18;;;;;;;328.17;137.38;;;;;;;;;;5092229;28;20060;-87
2020/12/16 16:45:44;;;;;;;326.60;135.70;;;;;;;;;;5094386;28;20025;-86
2020/12/16 16:48:10;;;;;;;330.67;141.57;;;;;;;;;;5094067;28;20149;-87
2020/12/16 16:50:36;;;;;;;357.92;151.73;;;;;;;;;;5094284;28;20032;-87
2020/12/16 16:53:02;;;;;;;378.45;162.30;;;;;;;;;;5094439;28;20032;-88
2020/12/16 16:55:28;;;;;;;369.75;169.27;;;;;;;;;;5094079;28;20047;-88
2020/12/16 16:57:54;;;;;;;415.25;200.77;;;;;;;;;;5094005;28;20016;-87
2020/12/16 17:00:21;;;;;;;402.38;191.45;;;;;;;;;;5094299;28;20288;-87
2020/12/16 17:02:47;;;;;;;497.95;224.52;;;;;;;;;;5090362;28;20075;-87
2020/12/16 17:05:14;;;;;;;464.15;216.43;;;;;;;;;;5080582;28;20028;-86
2020/12/16 17:07:44;;;;;;;472.02;222.82;;;;;;;;;;5080658;28;20020;-87
2020/12/16 17:10:10;;;;;;;419.30;208.00;;;;;;;;;;5080129;28;20024;-88
2020/12/16 17:12:43;;;;;;;433.33;206.75;;;;;;;;;;5080520;28;20028;-88
2020/12/16 17:15:09;;;;;;;;;;;;;;;;;;5080511;28;20024;-88
2020/12/16 17:17:38;;;;;;;448.90;211.88;;;;;;;;;;5079990;28;19905;-88
2020/12/16 17:20:05;;;;;;;461.55;222.32;;;;;;;;;;5079256;28;20021;-88
2020/12/16 17:22:31;;;;;;;472.92;236.55;;;;;;;;;;5080285;28;20116;-87
2020/12/16 17:24:57;;;;;;;596.70;266.75;;;;;;;;;;5080071;28;20032;-87
2020/12/16 17:27:23;;;;;;;524.90;244.05;;;;;;;;;;5079917;28;20069;-88
2020/12/16 17:29:50;;;;;;;499.73;239.52;;;;;;;;;;5079150;28;20044;-88
2020/12/16 17:32:16;;;;;;;444.95;214.98;;;;;;;;;;5079015;28;20327;-88
2020/12/16 17:34:42;;;;;;;400.38;193.32;;;;;;;;;;5080093;28;20025;-87
2020/12/16 17:37:08;;;;;;;405.27;190.75;;;;;;;;;;5079859;28;20027;-88
2020/12/16 17:39:34;;;;;;;330.33;148.73;;;;;;;;;;5079607;28;20063;-88
2020/12/16 17:42:00;;;;;;;336.67;152.82;;;;;;;;;;5079759;28;20040;-88
2020/12/16 17:44:26;;;;;;;358.92;160.10;;;;;;;;;;5079216;28;20035;-87
2020/12/16 17:46:52;;;;;;;383.35;182.18;;;;;;;;;;5079599;28;20056;-87
2020/12/16 17:49:18;;;;;;;375.73;178.68;;;;;;;;;;5079388;28;20024;-88
2020/12/16 17:51:44;;;;;;;359.73;165.85;;;;;;;;;;5078531;28;20020;-87
2020/12/16 17:54:15;;;;;;;327.80;152.65;;;;;;;;;;5078128;28;20027;-87
2020/12/16 17:56:42;;;;;;;308.73;144.35;;;;;;;;;;5078941;28;20017;-87
2020/12/16 17:59:08;;;;;;;305.33;144.50;;;;;;;;;;5078436;28;20115;-87
2020/12/16 18:01:34;;;;;;;320.95;146.90;;;;;;;;;;5078444;28;20060;-88
2020/12/16 18:04:00;;;;;;;332.63;153.93;;;;;;;;;;5079235;28;20414;-88
2020/12/16 18:06:27;;;;;;;335.58;155.90;;;;;;;;;;5078730;28;20033;-88
2020/12/16 18:08:53;;;;;;;313.02;144.45;;;;;;;;;;5079162;28;20029;-88
2020/12/16 18:11:25;;;;;;;311.05;144.95;;;;;;;;;;5078827;28;20032;-88
2020/12/16 18:13:51;;;;;;;310.00;146.32;;;;;;;;;;5078442;28;20028;-88
2020/12/16 18:16:17;;;;;;;309.67;143.85;;;;;;;;;;5078030;28;20025;-88
2020/12/16 18:18:43;;;;;;;292.70;140.10;;;;;;;;;;5078962;28;20048;-88
2020/12/16 18:21:09;;;;;;;309.25;151.30;;;;;;;;;;5078008;28;20024;-88
2020/12/16 18:23:35;;;;;;;322.17;157.07;;;;;;;;;;5079140;28;20020;-88
2020/12/16 18:26:01;;;;;;;331.50;156.75;;;;;;;;;;5078617;28;20032;-89
2020/12/16 18:28:27;;;;;;;293.00;133.15;;;;;;;;;;5077966;28;20028;-88
2020/12/16 18:30:54;;;;;;;278.80;129.75;;;;;;;;;;5081874;28;20468;-87
2020/12/16 18:33:24;;;;;;;275.77;127.25;;;;;;;;;;5140028;27;20152;-88
2020/12/16 18:35:50;;;;;;;275.15;127.93;;;;;;;;;;5121652;27;20011;-89
2020/12/16 18:38:17;;;;;;;269.73;126.97;;;;;;;;;;5139865;27;20309;-88
2020/12/16 18:40:43;;;;;;;250.15;115.13;;;;;;;;;;5139776;27;20019;-88
2020/12/16 18:43:09;;;;;;;236.52;110.75;;;;;;;;;;5139561;27;20023;-88
2020/12/16 18:45:35;;;;;;;226.82;104.45;;;;;;;;;;5139654;27;20027;-88
2020/12/16 18:48:01;;;;;;;214.68;99.22;;;;;;;;;;5121139;27;20488;-89
2020/12/16 18:50:27;;;;;;;224.23;98.35;;;;;;;;;;5139971;27;20123;-88
2020/12/16 18:52:53;;;;;;;224.18;103.90;;;;;;;;;;5139542;27;20046;-88
2020/12/16 18:55:20;;;;;;;202.52;89.15;;;;;;;;;;5139068;27;20316;-88
2020/12/16 18:57:46;;;;;;;198.60;93.93;;;;;;;;;;5121257;27;20069;-87
2020/12/16 19:00:13;;;;;;;188.80;87.78;;;;;;;;;;5139368;27;20019;-87
2020/12/16 19:02:40;;;;;;;196.18;95.20;;;;;;;;;;5139115;27;20455;-87
2020/12/16 19:05:07;;;;;;;210.35;105.22;;;;;;;;;;5139390;27;20072;-88
2020/12/16 19:07:33;;;;;;;197.43;100.93;;;;;;;;;;5139176;27;20023;-88
2020/12/16 19:09:59;;;;;;;188.40;92.28;;;;;;;;;;5139323;27;20027;-88
2020/12/16 19:12:25;;;;;;;176.23;79.43;;;;;;;;;;5138822;27;20027;-88
2020/12/16 19:14:52;;;;;;;165.50;75.25;;;;;;;;;;5139130;27;20102;-88
2020/12/16 19:17:18;;;;;;;155.50;73.28;;;;;;;;;;5139425;27;20109;-88
2020/12/16 19:19:44;;;;;;;166.85;75.50;;;;;;;;;;5139185;27;20015;-88
2020/12/16 19:22:10;;;;;;;166.75;76.40;;;;;;;;;;5138997;27;20019;-87
2020/12/16 19:24:36;;;;;;;177.93;78.15;;;;;;;;;;5139129;27;20050;-87
2020/12/16 19:27:03;;;;;;;179.13;80.40;;;;;;;;;;5138629;27;20072;-88
2020/12/16 19:29:30;;;;;;;194.52;81.15;;;;;;;;;;5120464;27;20433;-88
2020/12/16 19:31:56;;;;;;;186.25;82.38;;;;;;;;;;5121840;27;20050;-88
2020/12/16 19:34:22;;;;;;;181.77;81.88;;;;;;;;;;5138935;27;20022;-88
2020/12/16 19:36:49;;;;;;;187.32;81.50;;;;;;;;;;5138613;27;20432;-89
2020/12/16 19:39:16;;;;;;;195.77;79.43;;;;;;;;;;5139022;27;20077;-88
2020/12/16 19:41:43;;;;;;;183.52;75.47;;;;;;;;;;5138858;27;20029;-88
2020/12/16 19:44:11;;;;;;;196.85;77.65;;;;;;;;;;5138245;27;20034;-87
2020/12/16 19:46:42;;;;;;;190.15;80.10;;;;;;;;;;5121541;28;20046;-93
2020/12/16 19:49:08;;;;;;;201.48;79.90;;;;;;;;;;5120614;28;20031;-93
2020/12/16 19:51:37;;;;;;;200.40;81.30;;;;;;;;;;5139018;28;20110;-89
2020/12/16 19:54:04;;;;;;;200.43;80.78;;;;;;;;;;5120653;28;20061;-89
2020/12/16 19:56:37;;;;;;;208.23;83.95;;;;;;;;;;5138409;28;20015;-89
2020/12/16 19:59:04;;;;;;;210.00;83.90;;;;;;;;;;5138652;28;20435;-88
2020/12/16 20:01:30;;;;;;;213.35;87.82;;;;;;;;;;5138490;27;20035;-89
2020/12/16 20:03:56;;;;;;;232.40;93.40;;;;;;;;;;5138572;28;20019;-89
2020/12/16 20:06:22;;;;;;;232.00;95.03;;;;;;;;;;5138432;28;20397;-88
2020/12/16 20:08:48;;;;;;;239.20;98.57;;;;;;;;;;5138463;28;20027;-89
2020/12/16 20:11:14;;;;;;;278.33;115.03;;;;;;;;;;5138262;28;20015;-88
2020/12/16 20:13:40;;;;;;;314.83;118.60;;;;;;;;;;5119986;28;20045;-89
2020/12/16 20:16:06;;;;;;;313.33;114.60;;;;;;;;;;5138397;28;20015;-90
2020/12/16 20:18:33;;;;;;;203.90;79.97;;;;;;;;;;5138525;28;20317;-89
2020/12/16 20:20:59;;;;;;;210.60;82.97;;;;;;;;;;5120367;28;20032;-89
2020/12/16 20:23:25;;;;;;;193.02;78.18;;;;;;;;;;5138127;28;20023;-89
2020/12/16 20:25:51;;;;;;;172.45;72.28;;;;;;;;;;5119969;28;20037;-89
2020/12/16 20:28:17;;;;;;;166.63;68.22;;;;;;;;;;5138461;28;20054;-89
2020/12/16 20:30:43;;;;;;;161.18;63.38;;;;;;;;;;5119329;28;20054;-89
2020/12/16 20:33:09;;;;;;;158.20;64.78;;;;;;;;;;5122233;28;20027;-89